Time;durP1;ratioP1;P1;durP2;ratioP2;P2;SDS_P1;SDS_P2;PMS_P1;PMS_P2;Temp;Humidity;BMP_temperature;BMP_pressure;BME280_temperature;BME280_humidity;BME280_pressure;Samples;Min_cycle;Max_cycle;Signal;HPM_P1;HPM_P2
2023/01/14 00:01:43;;;;;;;6.83;2.50;;;;;;;;;;5075373;28;20170;-77
2023/01/14 00:04:08;;;;;;;4.57;2.00;;;;;;;;;;5073364;28;20199;-77
2023/01/14 00:06:35;;;;;;;6.07;2.27;;;;;;;;;;5063090;28;20178;-77
2023/01/14 00:09:01;;;;;;;4.17;2.00;;;;;;;;;;5061980;28;20173;-77
2023/01/14 00:14:11;;;;;;;8.73;2.30;;;;;;;;;;5067265;28;20201;-78
2023/01/14 00:16:36;;;;;;;7.30;2.40;;;;;;;;;;5069283;28;20207;-77
2023/01/14 00:19:02;;;;;;;9.03;2.60;;;;;;;;;;5084287;28;20183;-77
2023/01/14 00:21:28;;;;;;;4.13;1.67;;;;;;;;;;5071403;28;20189;-77
2023/01/14 00:23:53;;;;;;;7.37;1.93;;;;;;;;;;5068103;28;20197;-78
2023/01/14 00:26:18;;;;;;;7.07;2.50;;;;;;;;;;5072207;28;20202;-77
2023/01/14 00:28:47;;;;;;;6.23;2.20;;;;;;;;;;5065668;28;20202;-78
2023/01/14 00:31:15;;;;;;;6.97;2.50;;;;;;;;;;5067362;28;20185;-78
2023/01/14 00:33:41;;;;;;;7.47;2.00;;;;;;;;;;5087381;28;20177;-77
2023/01/14 00:36:07;;;;;;;5.43;2.00;;;;;;;;;;5070258;28;20233;-78
2023/01/14 00:38:32;;;;;;;5.70;2.00;;;;;;;;;;5075791;28;20185;-77
2023/01/14 00:41:06;;;;;;;9.30;2.33;;;;;;;;;;5073961;28;20180;-78
2023/01/14 00:43:32;;;;;;;7.23;2.87;;;;;;;;;;5067385;28;20212;-77
2023/01/14 00:45:57;;;;;;;7.10;1.97;;;;;;;;;;5064100;28;20515;-77
2023/01/14 00:48:22;;;;;;;4.50;1.97;;;;;;;;;;5067102;28;20190;-77
2023/01/14 00:50:47;;;;;;;7.57;2.00;;;;;;;;;;5066637;28;20185;-77
2023/01/14 00:53:13;;;;;;;7.53;2.47;;;;;;;;;;5064929;28;20185;-77
2023/01/14 00:55:38;;;;;;;7.63;1.97;;;;;;;;;;5082672;28;20217;-77
2023/01/14 00:58:03;;;;;;;5.83;2.50;;;;;;;;;;5059806;28;20213;-77
2023/01/14 01:00:28;;;;;;;5.57;2.33;;;;;;;;;;5068549;28;20279;-77
2023/01/14 01:02:53;;;;;;;9.63;2.73;;;;;;;;;;5066576;28;20216;-77
2023/01/14 01:05:18;;;;;;;6.20;2.33;;;;;;;;;;5067510;28;20328;-77
2023/01/14 01:07:44;;;;;;;3.67;1.80;;;;;;;;;;5076581;28;20181;-77
2023/01/14 01:10:09;;;;;;;5.07;2.60;;;;;;;;;;5067682;28;20178;-77
2023/01/14 01:12:35;;;;;;;8.90;3.17;;;;;;;;;;5073269;28;20176;-77
2023/01/14 01:15:00;;;;;;;10.77;4.40;;;;;;;;;;5074342;28;20203;-78
2023/01/14 01:17:25;;;;;;;7.40;2.27;;;;;;;;;;5069103;28;20201;-77
2023/01/14 01:19:54;;;;;;;6.87;2.10;;;;;;;;;;5064090;28;20177;-78
2023/01/14 01:22:19;;;;;;;6.97;2.33;;;;;;;;;;5069351;28;20180;-77
2023/01/14 01:24:44;;;;;;;5.80;1.93;;;;;;;;;;5068904;28;20198;-78
2023/01/14 01:27:09;;;;;;;7.63;1.97;;;;;;;;;;5070481;28;20178;-77
2023/01/14 01:29:35;;;;;;;8.10;3.13;;;;;;;;;;5058104;28;20169;-78
2023/01/14 01:32:00;;;;;;;5.33;2.30;;;;;;;;;;5064809;28;20185;-77
2023/01/14 01:34:25;;;;;;;6.53;2.50;;;;;;;;;;5074490;28;20189;-77
2023/01/14 01:36:50;;;;;;;10.43;3.57;;;;;;;;;;5038850;28;1091044;-77
2023/01/14 01:39:16;;;;;;;13.27;3.63;;;;;;;;;;5071644;28;20243;-77
2023/01/14 01:41:41;;;;;;;6.53;2.37;;;;;;;;;;5073202;28;20188;-77
2023/01/14 01:44:12;;;;;;;8.57;2.47;;;;;;;;;;5063734;28;20225;-77
2023/01/14 01:46:38;;;;;;;8.43;2.30;;;;;;;;;;5064993;28;20227;-77
2023/01/14 01:49:12;;;;;;;12.17;2.30;;;;;;;;;;5065553;28;20186;-77
2023/01/14 01:51:41;;;;;;;5.93;2.57;;;;;;;;;;5058393;28;20199;-77
2023/01/14 01:54:06;;;;;;;7.60;2.77;;;;;;;;;;5072847;28;20178;-77
2023/01/14 01:56:34;;;;;;;7.37;2.40;;;;;;;;;;5068497;28;20234;-77
2023/01/14 01:59:00;;;;;;;6.73;1.70;;;;;;;;;;5068317;28;20188;-78
2023/01/14 02:01:26;;;;;;;6.17;2.00;;;;;;;;;;5062699;28;20198;-77
2023/01/14 02:03:51;;;;;;;7.17;2.17;;;;;;;;;;5057589;28;20209;-77
2023/01/14 02:06:17;;;;;;;11.67;2.63;;;;;;;;;;5077401;28;20217;-78
2023/01/14 02:08:45;;;;;;;5.57;2.93;;;;;;;;;;5067305;28;20186;-77
2023/01/14 02:11:17;;;;;;;5.33;1.73;;;;;;;;;;5072704;28;20168;-77
2023/01/14 02:13:51;;;;;;;11.03;2.20;;;;;;;;;;5072042;28;20186;-78
2023/01/14 02:16:20;;;;;;;6.57;2.93;;;;;;;;;;5067795;28;20207;-77
2023/01/14 02:19:04;;;;;;;4.20;2.00;;;;;;;;;;5060163;28;20190;-77
2023/01/14 02:21:33;;;;;;;4.23;1.53;;;;;;;;;;5068615;28;20181;-78
2023/01/14 02:24:27;;;;;;;8.43;1.80;;;;;;;;;;5061523;28;20195;-78
2023/01/14 02:27:05;;;;;;;11.23;1.97;;;;;;;;;;5066280;28;20171;-77
2023/01/14 02:29:37;;;;;;;5.33;1.90;;;;;;;;;;5064313;28;20177;-78
2023/01/14 02:32:07;;;;;;;6.83;2.00;;;;;;;;;;5065332;28;20172;-77
2023/01/14 02:34:32;;;;;;;9.57;2.93;;;;;;;;;;5063337;28;20221;-78
2023/01/14 02:37:04;;;;;;;5.30;2.17;;;;;;;;;;5064477;28;20261;-77
2023/01/14 02:39:37;;;;;;;6.33;1.87;;;;;;;;;;5063346;28;20189;-77
2023/01/14 02:45:15;;;;;;;5.07;1.90;;;;;;;;;;5068717;28;20258;-78
2023/01/14 02:47:41;;;;;;;9.00;1.90;;;;;;;;;;5067011;28;20178;-77
2023/01/14 02:50:06;;;;;;;5.60;1.83;;;;;;;;;;5058578;28;20178;-78
2023/01/14 02:52:32;;;;;;;8.13;2.00;;;;;;;;;;5064175;28;20196;-77
2023/01/14 02:54:58;;;;;;;2.70;1.40;;;;;;;;;;5084034;28;20192;-78
2023/01/14 02:57:42;;;;;;;4.20;1.83;;;;;;;;;;5067463;28;20209;-78
2023/01/14 03:00:21;;;;;;;8.93;2.53;;;;;;;;;;5069555;28;20232;-78
2023/01/14 03:02:46;;;;;;;5.43;2.20;;;;;;;;;;5077569;28;20251;-77
2023/01/14 03:05:30;;;;;;;2.60;1.48;;;;;;;;;;5079904;28;20172;-77
2023/01/14 03:08:03;;;;;;;4.17;1.33;;;;;;;;;;5070166;28;20185;-78
2023/01/14 03:10:32;;;;;;;5.07;1.50;;;;;;;;;;5066246;28;20204;-78
2023/01/14 03:13:08;;;;;;;7.30;2.97;;;;;;;;;;5071252;28;20186;-78
2023/01/14 03:15:38;;;;;;;8.17;1.73;;;;;;;;;;5062200;28;20186;-77
2023/01/14 03:18:03;;;;;;;3.07;1.37;;;;;;;;;;5068837;28;20181;-77
2023/01/14 03:20:32;;;;;;;5.80;2.07;;;;;;;;;;5065277;28;20231;-77
2023/01/14 03:23:00;;;;;;;4.27;1.50;;;;;;;;;;5068008;28;20209;-77
2023/01/14 03:25:27;;;;;;;8.27;1.63;;;;;;;;;;5065623;28;20202;-78
2023/01/14 03:27:53;;;;;;;5.20;1.73;;;;;;;;;;5057857;28;20264;-77
2023/01/14 03:30:21;;;;;;;5.57;1.90;;;;;;;;;;5063889;28;20246;-77
2023/01/14 03:32:53;;;;;;;7.03;1.97;;;;;;;;;;5079177;28;20181;-78
2023/01/14 03:35:21;;;;;;;14.07;2.50;;;;;;;;;;5065080;28;20283;-78
2023/01/14 03:37:53;;;;;;;5.97;2.23;;;;;;;;;;5079172;28;20177;-77
2023/01/14 03:40:19;;;;;;;4.43;3.53;;;;;;;;;;5065578;28;20245;-78
2023/01/14 03:42:51;;;;;;;6.73;4.13;;;;;;;;;;5060880;28;20169;-78
2023/01/14 03:45:26;;;;;;;3.30;2.10;;;;;;;;;;5064051;28;20181;-78
2023/01/14 03:47:51;;;;;;;4.80;2.10;;;;;;;;;;5062213;28;20273;-78
2023/01/14 03:50:18;;;;;;;7.83;4.17;;;;;;;;;;5056845;28;20254;-77
2023/01/14 03:52:53;;;;;;;9.43;7.60;;;;;;;;;;5065564;28;20173;-78
2023/01/14 03:55:37;;;;;;;6.73;5.93;;;;;;;;;;5062298;28;20212;-78
2023/01/14 03:58:08;;;;;;;7.87;2.33;;;;;;;;;;5065829;28;20476;-77
2023/01/14 04:00:36;;;;;;;6.33;2.20;;;;;;;;;;5056734;28;20181;-77
2023/01/14 04:03:03;;;;;;;8.50;1.57;;;;;;;;;;5063715;28;20201;-78
2023/01/14 04:05:28;;;;;;;6.77;1.93;;;;;;;;;;5061855;28;20191;-77
2023/01/14 04:07:55;;;;;;;5.47;2.00;;;;;;;;;;5065387;28;20205;-78
2023/01/14 04:10:20;;;;;;;5.50;1.80;;;;;;;;;;5080541;28;20265;-78
2023/01/14 04:15:29;;;;;;;3.93;1.70;;;;;;;;;;5063567;28;20235;-78
2023/01/14 04:17:54;;;;;;;6.40;1.57;;;;;;;;;;5070636;28;20174;-78
2023/01/14 04:20:20;;;;;;;5.17;1.70;;;;;;;;;;5064803;28;20272;-78
2023/01/14 04:22:45;;;;;;;5.00;1.87;;;;;;;;;;5070729;28;20166;-78
2023/01/14 04:25:10;;;;;;;6.70;1.63;;;;;;;;;;5064067;28;20182;-77
2023/01/14 04:27:35;;;;;;;5.67;1.93;;;;;;;;;;5069747;28;20177;-78
2023/01/14 04:30:01;;;;;;;7.57;2.03;;;;;;;;;;5070230;28;20182;-77
2023/01/14 04:32:26;;;;;;;5.23;1.60;;;;;;;;;;5070700;28;20269;-78
2023/01/14 04:34:51;;;;;;;6.23;1.57;;;;;;;;;;5066839;28;20185;-78
2023/01/14 04:37:16;;;;;;;5.37;1.70;;;;;;;;;;5062604;28;20226;-78
2023/01/14 04:39:41;;;;;;;5.33;2.33;;;;;;;;;;5065453;28;20188;-78
2023/01/14 04:44:51;;;;;;;7.90;2.17;;;;;;;;;;5074875;28;20212;-77
2023/01/14 04:47:17;;;;;;;6.20;1.63;;;;;;;;;;5068347;28;20264;-78
2023/01/14 04:49:42;;;;;;;4.93;1.60;;;;;;;;;;5083970;28;20170;-77
2023/01/14 04:52:07;;;;;;;1.57;1.30;;;;;;;;;;5063015;28;20185;-78
2023/01/14 04:54:32;;;;;;;6.63;2.40;;;;;;;;;;5071926;28;20185;-78
2023/01/14 04:56:57;;;;;;;3.67;1.73;;;;;;;;;;5073277;28;20227;-78
2023/01/14 04:59:22;;;;;;;7.17;2.27;;;;;;;;;;5069224;28;20212;-78
2023/01/14 05:01:48;;;;;;;3.37;1.40;;;;;;;;;;5069364;28;20178;-78
2023/01/14 05:04:13;;;;;;;5.70;1.53;;;;;;;;;;5089906;28;20193;-78
2023/01/14 05:06:38;;;;;;;6.00;1.83;;;;;;;;;;5075477;28;20187;-78
2023/01/14 05:09:03;;;;;;;9.33;2.60;;;;;;;;;;5074201;28;20170;-78
2023/01/14 05:11:29;;;;;;;2.60;1.30;;;;;;;;;;5069520;28;20192;-77
2023/01/14 05:13:54;;;;;;;2.77;1.60;;;;;;;;;;5084569;28;20178;-78
2023/01/14 05:16:19;;;;;;;6.43;1.80;;;;;;;;;;5068680;28;20177;-78
2023/01/14 05:18:44;;;;;;;6.87;1.63;;;;;;;;;;5078269;28;20181;-77
2023/01/14 05:21:09;;;;;;;7.93;2.03;;;;;;;;;;5064586;28;20174;-78
2023/01/14 05:23:35;;;;;;;5.03;2.00;;;;;;;;;;5070651;28;20204;-78
2023/01/14 05:26:00;;;;;;;4.33;1.53;;;;;;;;;;5069758;28;20252;-78
2023/01/14 05:28:25;;;;;;;2.30;1.50;;;;;;;;;;5061039;28;20186;-78
2023/01/14 05:30:50;;;;;;;6.17;1.77;;;;;;;;;;5058904;28;20178;-78
2023/01/14 05:33:16;;;;;;;4.57;3.00;;;;;;;;;;5066027;28;20173;-78
2023/01/14 05:35:42;;;;;;;3.03;1.70;;;;;;;;;;5069301;28;20330;-78
2023/01/14 05:38:09;;;;;;;4.23;1.80;;;;;;;;;;5070575;28;20189;-78
2023/01/14 05:40:34;;;;;;;6.17;2.40;;;;;;;;;;5069886;28;20223;-78
2023/01/14 05:45:50;;;;;;;4.10;1.70;;;;;;;;;;5063035;28;20235;-78
2023/01/14 05:48:17;;;;;;;3.07;2.33;;;;;;;;;;5060943;28;20233;-78
2023/01/14 05:50:42;;;;;;;4.97;2.00;;;;;;;;;;5065811;28;20225;-77
2023/01/14 05:53:08;;;;;;;4.13;2.03;;;;;;;;;;5076518;28;20276;-78
2023/01/14 05:55:34;;;;;;;5.63;1.50;;;;;;;;;;5070050;28;20181;-78
2023/01/14 05:57:59;;;;;;;19.50;9.20;;;;;;;;;;5067110;28;20178;-78
2023/01/14 06:08:32;;;;;;;5.00;3.17;;;;;;;;;;5058493;28;20173;-77
2023/01/14 06:10:59;;;;;;;8.83;4.53;;;;;;;;;;5073648;28;20177;-77
2023/01/14 06:13:24;;;;;;;7.50;4.03;;;;;;;;;;5067673;28;20174;-78
2023/01/14 06:15:55;;;;;;;11.03;8.63;;;;;;;;;;5065107;28;20178;-77
2023/01/14 06:18:23;;;;;;;8.13;1.97;;;;;;;;;;5063907;28;20265;-78
2023/01/14 06:20:53;;;;;;;5.47;2.33;;;;;;;;;;5061865;28;20182;-78
2023/01/14 06:23:19;;;;;;;6.27;2.90;;;;;;;;;;5065564;28;20208;-77
2023/01/14 06:25:46;;;;;;;6.90;2.90;;;;;;;;;;5065006;28;20269;-78
2023/01/14 06:28:11;;;;;;;7.73;2.73;;;;;;;;;;5076307;28;20213;-78
2023/01/14 06:30:37;;;;;;;11.20;3.77;;;;;;;;;;5064620;28;20283;-77
2023/01/14 06:33:02;;;;;;;10.10;2.77;;;;;;;;;;5060498;28;20181;-78
2023/01/14 06:35:27;;;;;;;15.33;4.77;;;;;;;;;;5061398;28;20201;-78
2023/01/14 06:37:52;;;;;;;10.33;3.37;;;;;;;;;;5069272;28;20189;-78
2023/01/14 06:40:19;;;;;;;11.50;3.70;;;;;;;;;;5062407;28;20197;-78
2023/01/14 06:42:45;;;;;;;8.53;3.10;;;;;;;;;;5065113;28;20192;-78
2023/01/14 06:45:10;;;;;;;6.87;2.43;;;;;;;;;;5075450;28;20184;-78
2023/01/14 06:47:36;;;;;;;8.70;2.57;;;;;;;;;;5062361;28;20177;-78
2023/01/14 06:50:02;;;;;;;10.13;3.00;;;;;;;;;;5058610;28;20181;-76
2023/01/14 06:52:27;;;;;;;7.30;2.63;;;;;;;;;;5059584;28;20177;-80
2023/01/14 06:54:53;;;;;;;9.40;3.33;;;;;;;;;;5065432;28;20176;-80
2023/01/14 06:57:18;;;;;;;6.53;2.73;;;;;;;;;;5062618;28;20509;-81
2023/01/14 06:59:43;;;;;;;8.77;3.60;;;;;;;;;;5060048;28;20268;-81
2023/01/14 07:02:12;;;;;;;7.63;3.70;;;;;;;;;;5065444;28;20201;-80
2023/01/14 07:04:37;;;;;;;6.17;3.00;;;;;;;;;;5064715;28;20212;-80
2023/01/14 07:07:03;;;;;;;7.87;4.00;;;;;;;;;;5067019;28;20174;-80
2023/01/14 07:09:28;;;;;;;12.83;3.33;;;;;;;;;;5064436;28;20169;-80
2023/01/14 07:11:53;;;;;;;15.73;4.47;;;;;;;;;;5062278;28;20173;-80
2023/01/14 07:14:18;;;;;;;8.87;3.40;;;;;;;;;;5067215;28;20208;-80
2023/01/14 07:16:43;;;;;;;11.13;3.30;;;;;;;;;;5070322;28;20170;-80
2023/01/14 07:19:11;;;;;;;9.57;4.27;;;;;;;;;;5076309;28;20274;-81
2023/01/14 07:21:36;;;;;;;12.53;3.30;;;;;;;;;;5064048;28;20188;-80
2023/01/14 07:24:01;;;;;;;7.83;3.40;;;;;;;;;;5064421;28;20193;-81
2023/01/14 07:26:27;;;;;;;18.67;5.30;;;;;;;;;;5063829;28;20190;-80
2023/01/14 07:28:54;;;;;;;11.90;3.20;;;;;;;;;;5067279;28;20257;-81
2023/01/14 07:31:19;;;;;;;11.20;2.87;;;;;;;;;;5069427;28;20254;-81
2023/01/14 07:33:44;;;;;;;7.37;2.93;;;;;;;;;;5074336;28;20221;-80
2023/01/14 07:36:10;;;;;;;15.43;3.20;;;;;;;;;;5066514;28;20232;-81
2023/01/14 07:38:35;;;;;;;10.63;3.93;;;;;;;;;;5080168;28;20245;-80
2023/01/14 07:41:00;;;;;;;15.33;3.63;;;;;;;;;;5058903;28;20186;-81
2023/01/14 07:43:25;;;;;;;6.03;3.17;;;;;;;;;;5061147;28;20205;-80
2023/01/14 07:45:50;;;;;;;10.07;3.40;;;;;;;;;;5066206;28;20194;-81
2023/01/14 07:48:16;;;;;;;8.43;2.93;;;;;;;;;;5064938;28;20185;-80
2023/01/14 07:50:41;;;;;;;9.83;3.00;;;;;;;;;;5091404;28;20246;-80
2023/01/14 07:53:09;;;;;;;12.13;2.73;;;;;;;;;;5063688;28;20181;-81
2023/01/14 07:55:36;;;;;;;16.07;3.63;;;;;;;;;;5063264;28;20235;-80
2023/01/14 07:58:01;;;;;;;12.03;3.17;;;;;;;;;;5063767;28;20181;-80
2023/01/14 08:00:26;;;;;;;10.07;3.07;;;;;;;;;;5055291;28;20174;-80
2023/01/14 08:02:51;;;;;;;7.63;2.53;;;;;;;;;;5071924;28;20169;-81
2023/01/14 08:05:17;;;;;;;13.57;3.73;;;;;;;;;;5068322;28;20189;-80
2023/01/14 08:07:42;;;;;;;11.77;3.67;;;;;;;;;;5067196;28;20173;-80
2023/01/14 08:10:08;;;;;;;7.07;3.03;;;;;;;;;;5062882;28;20196;-81
2023/01/14 08:12:33;;;;;;;15.07;3.47;;;;;;;;;;5063721;28;20264;-81
2023/01/14 08:15:02;;;;;;;7.87;3.00;;;;;;;;;;5064964;28;20256;-81
2023/01/14 08:17:28;;;;;;;9.87;3.63;;;;;;;;;;5076380;28;20185;-81
2023/01/14 08:19:53;;;;;;;5.80;3.30;;;;;;;;;;5067715;28;20180;-81
2023/01/14 08:22:18;;;;;;;10.60;3.53;;;;;;;;;;5066115;28;20280;-80
2023/01/14 08:24:43;;;;;;;11.37;2.93;;;;;;;;;;5063176;28;20244;-81
2023/01/14 08:27:09;;;;;;;5.53;3.17;;;;;;;;;;5066348;28;20182;-80
2023/01/14 08:29:34;;;;;;;7.80;3.20;;;;;;;;;;5072504;28;20248;-81
2023/01/14 08:31:59;;;;;;;11.23;3.17;;;;;;;;;;5068478;28;20179;-81
2023/01/14 08:34:25;;;;;;;7.67;3.93;;;;;;;;;;5068049;28;20170;-81
2023/01/14 08:36:50;;;;;;;8.83;2.60;;;;;;;;;;5064278;28;20234;-81
2023/01/14 08:39:16;;;;;;;9.60;2.80;;;;;;;;;;5078064;28;20187;-81
2023/01/14 08:41:42;;;;;;;9.93;2.87;;;;;;;;;;5075658;28;20189;-81
2023/01/14 08:44:08;;;;;;;8.80;2.60;;;;;;;;;;5072473;28;20201;-80
2023/01/14 08:46:33;;;;;;;5.33;3.03;;;;;;;;;;5070665;28;20178;-81
2023/01/14 08:48:58;;;;;;;12.47;3.30;;;;;;;;;;5064772;28;20185;-80
2023/01/14 08:51:26;;;;;;;11.50;4.30;;;;;;;;;;5060813;28;20224;-80
2023/01/14 08:53:52;;;;;;;13.50;4.30;;;;;;;;;;5061681;28;20185;-80
2023/01/14 08:56:17;;;;;;;10.50;4.37;;;;;;;;;;5082660;28;20190;-80
2023/01/14 08:58:42;;;;;;;14.07;5.80;;;;;;;;;;5060271;28;20189;-80
2023/01/14 09:01:08;;;;;;;14.60;3.43;;;;;;;;;;5062480;28;20185;-80
2023/01/14 09:03:35;;;;;;;4.97;2.87;;;;;;;;;;5064656;28;20241;-81
2023/01/14 09:06:01;;;;;;;4.70;2.60;;;;;;;;;;5063792;28;20200;-80
2023/01/14 09:17:05;;;;;;;11.97;4.10;;;;;;;;;;5056556;28;20405;-81
2023/01/14 09:19:36;;;;;;;11.33;3.20;;;;;;;;;;5066947;28;20189;-80
2023/01/14 09:22:02;;;;;;;9.80;4.83;;;;;;;;;;5060814;28;20177;-80
2023/01/14 09:24:27;;;;;;;11.63;4.00;;;;;;;;;;5069253;28;20358;-81
2023/01/14 09:26:52;;;;;;;9.33;4.10;;;;;;;;;;5065822;28;20233;-80
2023/01/14 09:29:18;;;;;;;9.63;3.73;;;;;;;;;;5071314;28;20184;-80
2023/01/14 09:31:43;;;;;;;11.70;3.77;;;;;;;;;;5065256;28;20174;-81
2023/01/14 09:34:08;;;;;;;7.60;4.03;;;;;;;;;;5070351;28;20178;-80
2023/01/14 09:36:33;;;;;;;22.23;10.50;;;;;;;;;;5068519;28;20239;-80
2023/01/14 09:38:58;;;;;;;9.73;5.33;;;;;;;;;;5068110;28;20184;-80
2023/01/14 09:41:26;;;;;;;10.83;3.87;;;;;;;;;;5059678;28;20198;-80
2023/01/14 09:43:51;;;;;;;13.67;4.27;;;;;;;;;;5063388;28;20205;-80
2023/01/14 09:46:17;;;;;;;10.93;4.13;;;;;;;;;;5066940;28;20240;-80
2023/01/14 09:48:42;;;;;;;12.53;5.63;;;;;;;;;;5061222;28;20177;-81
2023/01/14 09:51:26;;;;;;;6.93;3.50;;;;;;;;;;5077627;28;20206;-80
2023/01/14 09:54:02;;;;;;;6.30;3.87;;;;;;;;;;5051505;28;20182;-80
2023/01/14 09:56:46;;;;;;;5.87;3.07;;;;;;;;;;5067104;28;20186;-81
2023/01/14 09:59:30;;;;;;;8.83;4.30;;;;;;;;;;5064129;28;20184;-80
2023/01/14 10:02:08;;;;;;;9.33;4.40;;;;;;;;;;5063245;28;20258;-80
2023/01/14 10:04:46;;;;;;;8.17;3.60;;;;;;;;;;5078555;28;20212;-80
2023/01/14 10:07:12;;;;;;;7.30;3.37;;;;;;;;;;5069613;28;20200;-80
2023/01/14 10:09:48;;;;;;;12.50;3.30;;;;;;;;;;5064138;28;20247;-80
2023/01/14 10:12:20;;;;;;;6.40;3.40;;;;;;;;;;5068593;28;20179;-80
2023/01/14 10:14:58;;;;;;;7.23;3.30;;;;;;;;;;5057995;28;20215;-80
2023/01/14 10:17:27;;;;;;;6.53;3.63;;;;;;;;;;5067949;28;20254;-80
2023/01/14 10:19:52;;;;;;;9.23;3.43;;;;;;;;;;5057466;28;20179;-80
2023/01/14 10:22:23;;;;;;;7.30;3.57;;;;;;;;;;5065012;28;20185;-81
2023/01/14 10:24:48;;;;;;;11.70;4.20;;;;;;;;;;5059527;28;20220;-80
2023/01/14 10:27:15;;;;;;;7.80;2.97;;;;;;;;;;5066954;28;20173;-80
2023/01/14 10:29:41;;;;;;;9.83;4.83;;;;;;;;;;5067007;28;20243;-80
2023/01/14 10:32:09;;;;;;;9.73;3.57;;;;;;;;;;5065216;28;20181;-80
2023/01/14 10:34:39;;;;;;;5.27;3.53;;;;;;;;;;5073376;28;20188;-81
2023/01/14 10:37:08;;;;;;;6.13;2.93;;;;;;;;;;5067121;28;20244;-81
2023/01/14 10:39:33;;;;;;;8.87;2.60;;;;;;;;;;5061590;28;20187;-80
2023/01/14 10:42:03;;;;;;;4.77;2.30;;;;;;;;;;5079819;28;20189;-80
2023/01/14 10:44:29;;;;;;;7.17;4.37;;;;;;;;;;5063593;28;20206;-80
2023/01/14 10:46:59;;;;;;;5.53;2.13;;;;;;;;;;5061864;28;20207;-80
2023/01/14 10:49:37;;;;;;;2.00;1.37;;;;;;;;;;5058699;28;20287;-81
2023/01/14 10:52:20;;;;;;;1.60;1.10;;;;;;;;;;5066773;28;20177;-81
2023/01/14 10:55:15;;;;;;;2.90;0.87;;;;;;;;;;5065566;28;20233;-81
2023/01/14 10:57:46;;;;;;;2.67;1.10;;;;;;;;;;5053348;28;20200;-81
2023/01/14 11:00:30;;;;;;;1.03;0.90;;;;;;;;;;5067340;28;20180;-80
2023/01/14 11:02:56;;;;;;;0.60;0.55;;;;;;;;;;5071279;28;20177;-81
2023/01/14 11:05:26;;;;;;;3.87;1.20;;;;;;;;;;5066391;28;20172;-80
2023/01/14 11:07:52;;;;;;;1.03;0.90;;;;;;;;;;5063517;28;20200;-81
2023/01/14 11:10:20;;;;;;;1.33;1.00;;;;;;;;;;5065232;28;20181;-80
2023/01/14 11:12:46;;;;;;;1.13;0.90;;;;;;;;;;5067622;28;20172;-81
2023/01/14 11:15:29;;;;;;;0.80;0.77;;;;;;;;;;5062661;28;20231;-81
2023/01/14 11:18:14;;;;;;;1.67;1.00;;;;;;;;;;5066629;28;20184;-81
2023/01/14 11:20:39;;;;;;;4.17;2.90;;;;;;;;;;5061265;28;20185;-81
2023/01/14 11:23:23;;;;;;;2.77;0.73;;;;;;;;;;5068565;28;20185;-81
2023/01/14 11:25:48;;;;;;;2.67;1.37;;;;;;;;;;5066766;28;20211;-81
2023/01/14 11:28:14;;;;;;;2.03;0.97;;;;;;;;;;5060458;28;20185;-81
2023/01/14 11:30:42;;;;;;;1.70;0.57;;;;;;;;;;5068921;28;20173;-81
2023/01/14 11:33:16;;;;;;;0.80;0.80;;;;;;;;;;5064433;28;20215;-81
2023/01/14 11:35:48;;;;;;;2.07;1.40;;;;;;;;;;5057574;28;20192;-81
2023/01/14 11:38:15;;;;;;;2.93;2.63;;;;;;;;;;5065212;28;20181;-81
2023/01/14 11:43:25;;;;;;;12.07;5.93;;;;;;;;;;5068186;28;20262;-81
2023/01/14 11:46:23;;;;;;;7.77;3.73;;;;;;;;;;5066706;28;20427;-81
2023/01/14 11:49:08;;;;;;;2.30;1.70;;;;;;;;;;5035105;28;20188;-81
2023/01/14 11:51:38;;;;;;;2.23;1.10;;;;;;;;;;5068597;28;20192;-80
2023/01/14 11:54:03;;;;;;;38.80;22.20;;;;;;;;;;5063850;28;20209;-81
2023/01/14 11:56:34;;;;;;;30.63;18.73;;;;;;;;;;5065427;28;20210;-81
2023/01/14 11:59:01;;;;;;;17.87;12.23;;;;;;;;;;5071695;28;20535;-81
2023/01/14 12:01:41;;;;;;;9.93;7.33;;;;;;;;;;5063806;28;20194;-81
2023/01/14 12:04:16;;;;;;;1.07;1.03;;;;;;;;;;5071705;28;20199;-81
2023/01/14 12:06:46;;;;;;;1.77;1.67;;;;;;;;;;5068210;28;20175;-80
2023/01/14 12:09:21;;;;;;;3.73;0.97;;;;;;;;;;5076400;28;20178;-82
2023/01/14 12:11:54;;;;;;;1.20;1.00;;;;;;;;;;5065542;28;20173;-81
2023/01/14 12:17:15;;;;;;;1.53;1.43;;;;;;;;;;5069826;28;20224;-81
2023/01/14 12:19:40;;;;;;;1.03;0.90;;;;;;;;;;5063875;28;20209;-81
2023/01/14 12:22:17;;;;;;;1.15;1.00;;;;;;;;;;5067133;28;20214;-81
2023/01/14 12:25:01;;;;;;;1.03;0.83;;;;;;;;;;5067294;28;20289;-81
2023/01/14 12:27:42;;;;;;;2.33;1.47;;;;;;;;;;5055117;28;20198;-81
2023/01/14 12:30:20;;;;;;;2.40;1.13;;;;;;;;;;5064212;28;20169;-81
2023/01/14 12:32:48;;;;;;;1.60;1.50;;;;;;;;;;5074700;28;20271;-81
2023/01/14 12:35:15;;;;;;;1.40;1.30;;;;;;;;;;5070796;28;20196;-81
2023/01/14 12:38:01;;;;;;;2.13;1.40;;;;;;;;;;5075701;28;20229;-81
2023/01/14 12:46:09;;;;;;;2.27;1.63;;;;;;;;;;5065493;28;20240;-81
2023/01/14 12:48:35;;;;;;;1.73;1.37;;;;;;;;;;5084150;28;20180;-81
2023/01/14 12:51:10;;;;;;;1.50;1.30;;;;;;;;;;5062149;28;20452;-81
2023/01/14 12:53:42;;;;;;;1.47;1.37;;;;;;;;;;5058369;28;20180;-81
2023/01/14 12:56:08;;;;;;;2.67;1.30;;;;;;;;;;5063979;28;20190;-81
2023/01/14 12:58:37;;;;;;;1.43;1.03;;;;;;;;;;5071411;28;20245;-81
2023/01/14 13:01:08;;;;;;;1.43;1.00;;;;;;;;;;5079875;28;20257;-81
2023/01/14 13:03:35;;;;;;;1.17;0.90;;;;;;;;;;5060749;28;20288;-81
2023/01/14 13:06:12;;;;;;;2.90;1.53;;;;;;;;;;5076754;28;20224;-80
2023/01/14 13:08:38;;;;;;;3.20;2.30;;;;;;;;;;5071968;28;20176;-81
2023/01/14 13:11:05;;;;;;;3.83;3.00;;;;;;;;;;5064782;28;20176;-81
2023/01/14 13:13:34;;;;;;;2.40;2.20;;;;;;;;;;5067338;28;20195;-80
2023/01/14 13:16:01;;;;;;;2.10;1.27;;;;;;;;;;5064533;28;20176;-81
2023/01/14 13:18:35;;;;;;;1.00;0.93;;;;;;;;;;5066447;28;20278;-81
2023/01/14 13:21:04;;;;;;;2.23;1.40;;;;;;;;;;5068015;28;20184;-81
2023/01/14 13:23:36;;;;;;;1.30;1.20;;;;;;;;;;5065490;28;20202;-81
2023/01/14 13:26:01;;;;;;;1.23;1.10;;;;;;;;;;5064730;28;20175;-81
2023/01/14 13:28:26;;;;;;;1.43;0.87;;;;;;;;;;5072044;28;20181;-81
2023/01/14 13:31:12;;;;;;;1.27;0.90;;;;;;;;;;5061912;28;20176;-81
2023/01/14 13:33:39;;;;;;;3.17;1.07;;;;;;;;;;5061091;28;20192;-81
2023/01/14 13:36:13;;;;;;;1.20;0.80;;;;;;;;;;5071967;28;20330;-81
2023/01/14 13:38:43;;;;;;;0.60;0.60;;;;;;;;;;5066007;28;20192;-81
2023/01/14 13:41:09;;;;;;;0.70;0.70;;;;;;;;;;5065893;28;20182;-81
2023/01/14 13:43:37;;;;;;;1.80;1.03;;;;;;;;;;5069405;28;20295;-81
2023/01/14 13:46:03;;;;;;;1.77;1.10;;;;;;;;;;5066908;28;20253;-81
2023/01/14 13:48:34;;;;;;;0.83;0.83;;;;;;;;;;5068907;28;20178;-81
2023/01/14 13:51:16;;;;;;;0.80;0.80;;;;;;;;;;5064045;28;20181;-81
2023/01/14 13:53:47;;;;;;;0.70;0.70;;;;;;;;;;5077222;28;20194;-81
2023/01/14 13:56:19;;;;;;;1.17;0.77;;;;;;;;;;5067535;28;20242;-81
2023/01/14 13:58:48;;;;;;;1.03;0.80;;;;;;;;;;5079915;28;20193;-81
2023/01/14 14:01:29;;;;;;;1.23;0.83;;;;;;;;;;5063562;28;20177;-81
2023/01/14 14:03:55;;;;;;;0.77;0.70;;;;;;;;;;5069215;28;20209;-81
2023/01/14 14:06:20;;;;;;;2.73;1.00;;;;;;;;;;5064523;28;20187;-81
2023/01/14 14:08:50;;;;;;;1.23;0.97;;;;;;;;;;5061830;28;20177;-81
2023/01/14 14:11:18;;;;;;;1.00;0.90;;;;;;;;;;5063630;28;20209;-82
2023/01/14 14:16:30;;;;;;;1.40;1.30;;;;;;;;;;5068113;28;20202;-81
2023/01/14 14:19:00;;;;;;;3.47;2.30;;;;;;;;;;5077902;28;20181;-81
2023/01/14 14:21:29;;;;;;;3.97;1.90;;;;;;;;;;5062646;28;20266;-81
2023/01/14 14:23:56;;;;;;;2.93;1.93;;;;;;;;;;5061956;28;20216;-81
2023/01/14 14:26:24;;;;;;;1.93;1.50;;;;;;;;;;5067146;28;20188;-81
2023/01/14 14:28:51;;;;;;;2.73;1.63;;;;;;;;;;5065277;28;20173;-81
2023/01/14 14:31:20;;;;;;;1.43;0.93;;;;;;;;;;5068364;28;20244;-81
2023/01/14 14:33:45;;;;;;;3.20;2.90;;;;;;;;;;5068862;28;20180;-81
2023/01/14 14:36:13;;;;;;;1.37;1.20;;;;;;;;;;5069102;28;20234;-81
2023/01/14 14:38:39;;;;;;;1.80;1.70;;;;;;;;;;5067491;28;20177;-81
2023/01/14 14:41:05;;;;;;;4.07;3.67;;;;;;;;;;5068316;28;20280;-81
2023/01/14 14:43:30;;;;;;;1.40;1.30;;;;;;;;;;5062153;28;20201;-81
2023/01/14 14:46:03;;;;;;;1.73;1.40;;;;;;;;;;5062807;28;20268;-81
2023/01/14 14:48:29;;;;;;;1.70;1.60;;;;;;;;;;5067899;28;20169;-81
2023/01/14 14:50:56;;;;;;;1.83;1.30;;;;;;;;;;5065322;28;23194;-81
2023/01/14 14:53:28;;;;;;;1.07;0.90;;;;;;;;;;5075496;28;20244;-81
2023/01/14 14:55:55;;;;;;;1.70;1.60;;;;;;;;;;5070432;28;20175;-81
2023/01/14 14:58:24;;;;;;;1.37;1.27;;;;;;;;;;5069296;28;20178;-81
2023/01/14 15:00:53;;;;;;;1.17;0.93;;;;;;;;;;5062056;28;20260;-81
2023/01/14 15:03:20;;;;;;;1.47;1.07;;;;;;;;;;5063649;28;20199;-81
2023/01/14 15:05:46;;;;;;;2.00;0.97;;;;;;;;;;5062564;28;20177;-81
2023/01/14 15:08:14;;;;;;;1.30;1.20;;;;;;;;;;5068331;28;20178;-81
2023/01/14 15:10:42;;;;;;;1.00;1.00;;;;;;;;;;5068033;28;20191;-77
2023/01/14 15:13:19;;;;;;;1.73;1.27;;;;;;;;;;5070524;28;20182;-82
2023/01/14 15:15:44;;;;;;;2.33;2.10;;;;;;;;;;5064411;28;20180;-81
2023/01/14 15:18:28;;;;;;;1.30;1.13;;;;;;;;;;5060849;28;20177;-82
2023/01/14 15:20:54;;;;;;;2.30;1.03;;;;;;;;;;5065146;28;20247;-82
2023/01/14 15:23:19;;;;;;;2.13;1.50;;;;;;;;;;5066147;28;20265;-82
2023/01/14 15:25:44;;;;;;;6.83;5.03;;;;;;;;;;5075163;28;20185;-82
2023/01/14 15:28:15;;;;;;;34.13;17.63;;;;;;;;;;5066233;28;20211;-82
2023/01/14 15:30:40;;;;;;;19.77;11.27;;;;;;;;;;5061410;28;20173;-82
2023/01/14 15:33:23;;;;;;;19.87;13.03;;;;;;;;;;5067221;28;20185;-82